sensor_id;sensor_type;location;lat;lon;timestamp;P1;durP1;ratioP1;P2;durP2;ratioP2
72319;SDS011;60269;52.502;16.732;2022-08-05T00:01:42;10.20;;;4.13;;
72319;SDS011;60269;52.502;16.732;2022-08-05T00:05:54;11.27;;;3.80;;
72319;SDS011;60269;52.502;16.732;2022-08-05T00:09:59;9.07;;;4.45;;
72319;SDS011;60269;52.502;16.732;2022-08-05T00:13:51;12.38;;;3.83;;
72319;SDS011;60269;52.502;16.732;2022-08-05T00:17:29;8.50;;;3.97;;
72319;SDS011;60269;52.502;16.732;2022-08-05T00:21:25;10.60;;;4.20;;
72319;SDS011;60269;52.502;16.732;2022-08-05T00:25:12;8.83;;;4.30;;
72319;SDS011;60269;52.502;16.732;2022-08-05T00:28:57;12.05;;;4.47;;
72319;SDS011;60269;52.502;16.732;2022-08-05T00:32:42;8.30;;;3.83;;
72319;SDS011;60269;52.502;16.732;2022-08-05T00:36:34;8.02;;;4.18;;
72319;SDS011;60269;52.502;16.732;2022-08-05T00:40:32;10.10;;;4.90;;
72319;SDS011;60269;52.502;16.732;2022-08-05T00:44:30;11.00;;;4.60;;
72319;SDS011;60269;52.502;16.732;2022-08-05T00:48:17;8.82;;;4.07;;
72319;SDS011;60269;52.502;16.732;2022-08-05T00:52:10;9.48;;;4.28;;
72319;SDS011;60269;52.502;16.732;2022-08-05T00:55:48;9.73;;;4.18;;
72319;SDS011;60269;52.502;16.732;2022-08-05T00:59:47;8.63;;;4.20;;
72319;SDS011;60269;52.502;16.732;2022-08-05T01:03:32;8.73;;;4.27;;
72319;SDS011;60269;52.502;16.732;2022-08-05T01:07:33;9.00;;;4.03;;
72319;SDS011;60269;52.502;16.732;2022-08-05T01:11:32;9.68;;;4.22;;
72319;SDS011;60269;52.502;16.732;2022-08-05T01:15:37;7.57;;;3.67;;
72319;SDS011;60269;52.502;16.732;2022-08-05T01:19:46;8.13;;;3.90;;
72319;SDS011;60269;52.502;16.732;2022-08-05T01:23:39;10.93;;;4.50;;
72319;SDS011;60269;52.502;16.732;2022-08-05T01:32:01;7.90;;;4.97;;
72319;SDS011;60269;52.502;16.732;2022-08-05T01:36:05;8.70;;;3.88;;
72319;SDS011;60269;52.502;16.732;2022-08-05T01:39:51;8.43;;;3.90;;
72319;SDS011;60269;52.502;16.732;2022-08-05T01:43:52;7.33;;;3.50;;
72319;SDS011;60269;52.502;16.732;2022-08-05T01:47:53;8.50;;;4.10;;
72319;SDS011;60269;52.502;16.732;2022-08-05T01:51:56;7.47;;;3.95;;
72319;SDS011;60269;52.502;16.732;2022-08-05T01:55:48;7.07;;;3.78;;
72319;SDS011;60269;52.502;16.732;2022-08-05T01:59:53;9.83;;;3.23;;
72319;SDS011;60269;52.502;16.732;2022-08-05T02:03:43;12.70;;;3.97;;
72319;SDS011;60269;52.502;16.732;2022-08-05T02:07:36;7.80;;;3.90;;
72319;SDS011;60269;52.502;16.732;2022-08-05T02:12:14;7.85;;;4.03;;
72319;SDS011;60269;52.502;16.732;2022-08-05T02:16:00;9.13;;;4.03;;
72319;SDS011;60269;52.502;16.732;2022-08-05T02:19:50;10.13;;;3.93;;
72319;SDS011;60269;52.502;16.732;2022-08-05T02:23:47;7.23;;;3.60;;
72319;SDS011;60269;52.502;16.732;2022-08-05T02:27:36;8.07;;;3.70;;
72319;SDS011;60269;52.502;16.732;2022-08-05T02:31:36;9.50;;;3.90;;
72319;SDS011;60269;52.502;16.732;2022-08-05T02:35:24;9.68;;;3.70;;
72319;SDS011;60269;52.502;16.732;2022-08-05T02:39:16;7.67;;;3.70;;
72319;SDS011;60269;52.502;16.732;2022-08-05T02:43:04;7.13;;;3.83;;
72319;SDS011;60269;52.502;16.732;2022-08-05T02:46:57;9.18;;;3.67;;
72319;SDS011;60269;52.502;16.732;2022-08-05T02:50:45;8.13;;;3.85;;
72319;SDS011;60269;52.502;16.732;2022-08-05T02:54:37;8.82;;;3.92;;
72319;SDS011;60269;52.502;16.732;2022-08-05T02:58:20;8.37;;;3.57;;
72319;SDS011;60269;52.502;16.732;2022-08-05T03:02:00;8.50;;;3.73;;
72319;SDS011;60269;52.502;16.732;2022-08-05T03:05:52;11.45;;;4.07;;
72319;SDS011;60269;52.502;16.732;2022-08-05T03:09:58;7.30;;;3.60;;
72319;SDS011;60269;52.502;16.732;2022-08-05T03:13:51;9.25;;;3.55;;
72319;SDS011;60269;52.502;16.732;2022-08-05T03:17:39;7.47;;;3.57;;
72319;SDS011;60269;52.502;16.732;2022-08-05T03:21:30;11.37;;;4.50;;
72319;SDS011;60269;52.502;16.732;2022-08-05T03:25:25;10.30;;;3.90;;
72319;SDS011;60269;52.502;16.732;2022-08-05T03:29:38;9.82;;;3.45;;
72319;SDS011;60269;52.502;16.732;2022-08-05T03:33:37;7.30;;;3.78;;
72319;SDS011;60269;52.502;16.732;2022-08-05T03:37:23;8.43;;;4.13;;
72319;SDS011;60269;52.502;16.732;2022-08-05T03:41:23;9.07;;;3.80;;
72319;SDS011;60269;52.502;16.732;2022-08-05T03:45:15;8.43;;;3.90;;
72319;SDS011;60269;52.502;16.732;2022-08-05T03:49:00;7.80;;;3.58;;
72319;SDS011;60269;52.502;16.732;2022-08-05T03:53:05;10.45;;;4.65;;
72319;SDS011;60269;52.502;16.732;2022-08-05T03:57:22;11.27;;;4.03;;
72319;SDS011;60269;52.502;16.732;2022-08-05T04:01:19;14.00;;;4.40;;
72319;SDS011;60269;52.502;16.732;2022-08-05T04:05:09;19.17;;;4.07;;
72319;SDS011;60269;52.502;16.732;2022-08-05T04:08:56;9.63;;;3.58;;
72319;SDS011;60269;52.502;16.732;2022-08-05T04:12:46;14.15;;;4.05;;
72319;SDS011;60269;52.502;16.732;2022-08-05T04:16:32;9.40;;;3.90;;
72319;SDS011;60269;52.502;16.732;2022-08-05T04:20:24;11.40;;;4.27;;
72319;SDS011;60269;52.502;16.732;2022-08-05T04:24:03;11.85;;;3.53;;
72319;SDS011;60269;52.502;16.732;2022-08-05T04:28:06;15.73;;;4.05;;
72319;SDS011;60269;52.502;16.732;2022-08-05T04:31:45;9.85;;;3.97;;
72319;SDS011;60269;52.502;16.732;2022-08-05T04:35:41;9.07;;;3.67;;
72319;SDS011;60269;52.502;16.732;2022-08-05T04:39:40;8.10;;;3.87;;
72319;SDS011;60269;52.502;16.732;2022-08-05T04:43:39;9.48;;;3.67;;
72319;SDS011;60269;52.502;16.732;2022-08-05T04:47:38;9.05;;;4.03;;
72319;SDS011;60269;52.502;16.732;2022-08-05T04:51:17;8.32;;;3.67;;
72319;SDS011;60269;52.502;16.732;2022-08-05T04:55:18;10.03;;;3.53;;
72319;SDS011;60269;52.502;16.732;2022-08-05T04:59:18;10.07;;;4.03;;
72319;SDS011;60269;52.502;16.732;2022-08-05T05:03:22;16.70;;;3.50;;
72319;SDS011;60269;52.502;16.732;2022-08-05T05:07:12;9.85;;;3.58;;
72319;SDS011;60269;52.502;16.732;2022-08-05T05:11:13;7.55;;;3.85;;
72319;SDS011;60269;52.502;16.732;2022-08-05T05:15:12;9.27;;;3.93;;
72319;SDS011;60269;52.502;16.732;2022-08-05T05:19:30;8.23;;;3.77;;
72319;SDS011;60269;52.502;16.732;2022-08-05T05:23:31;8.30;;;3.35;;
72319;SDS011;60269;52.502;16.732;2022-08-05T05:27:30;7.50;;;3.70;;
72319;SDS011;60269;52.502;16.732;2022-08-05T05:31:29;8.45;;;4.07;;
72319;SDS011;60269;52.502;16.732;2022-08-05T05:35:07;13.53;;;4.13;;
72319;SDS011;60269;52.502;16.732;2022-08-05T05:39:08;9.00;;;3.70;;
72319;SDS011;60269;52.502;16.732;2022-08-05T05:42:50;10.25;;;4.53;;
72319;SDS011;60269;52.502;16.732;2022-08-05T05:46:42;7.22;;;4.18;;
72319;SDS011;60269;52.502;16.732;2022-08-05T05:50:21;7.68;;;4.13;;
72319;SDS011;60269;52.502;16.732;2022-08-05T05:54:27;7.77;;;4.17;;
72319;SDS011;60269;52.502;16.732;2022-08-05T05:58:21;13.70;;;4.70;;
72319;SDS011;60269;52.502;16.732;2022-08-05T06:02:23;7.70;;;4.88;;
72319;SDS011;60269;52.502;16.732;2022-08-05T06:06:22;6.43;;;3.58;;
72319;SDS011;60269;52.502;16.732;2022-08-05T06:10:05;9.13;;;3.50;;
72319;SDS011;60269;52.502;16.732;2022-08-05T06:13:59;8.30;;;3.80;;
72319;SDS011;60269;52.502;16.732;2022-08-05T06:17:46;8.93;;;4.00;;
72319;SDS011;60269;52.502;16.732;2022-08-05T06:21:37;9.02;;;3.88;;
72319;SDS011;60269;52.502;16.732;2022-08-05T06:25:26;11.52;;;4.60;;
72319;SDS011;60269;52.502;16.732;2022-08-05T06:29:38;9.75;;;3.30;;
72319;SDS011;60269;52.502;16.732;2022-08-05T06:33:43;9.23;;;4.60;;
72319;SDS011;60269;52.502;16.732;2022-08-05T06:37:45;8.43;;;3.93;;
72319;SDS011;60269;52.502;16.732;2022-08-05T06:41:49;8.63;;;4.47;;
72319;SDS011;60269;52.502;16.732;2022-08-05T06:45:48;6.97;;;4.35;;
72319;SDS011;60269;52.502;16.732;2022-08-05T06:49:37;8.27;;;4.03;;
72319;SDS011;60269;52.502;16.732;2022-08-05T06:53:48;7.93;;;3.97;;
72319;SDS011;60269;52.502;16.732;2022-08-05T06:57:29;15.40;;;4.40;;
72319;SDS011;60269;52.502;16.732;2022-08-05T07:01:40;9.40;;;4.55;;
72319;SDS011;60269;52.502;16.732;2022-08-05T07:05:29;7.60;;;4.15;;
72319;SDS011;60269;52.502;16.732;2022-08-05T07:09:23;10.95;;;4.68;;
72319;SDS011;60269;52.502;16.732;2022-08-05T07:13:02;8.90;;;4.13;;
72319;SDS011;60269;52.502;16.732;2022-08-05T07:17:32;9.93;;;4.05;;
72319;SDS011;60269;52.502;16.732;2022-08-05T07:21:37;8.68;;;4.18;;
72319;SDS011;60269;52.502;16.732;2022-08-05T07:25:44;7.15;;;4.03;;
72319;SDS011;60269;52.502;16.732;2022-08-05T07:29:27;9.03;;;4.30;;
72319;SDS011;60269;52.502;16.732;2022-08-05T07:33:45;7.78;;;4.28;;
72319;SDS011;60269;52.502;16.732;2022-08-05T07:37:44;9.75;;;4.20;;
72319;SDS011;60269;52.502;16.732;2022-08-05T07:41:23;7.18;;;4.40;;
72319;SDS011;60269;52.502;16.732;2022-08-05T07:45:34;8.97;;;4.60;;
72319;SDS011;60269;52.502;16.732;2022-08-05T07:49:28;10.50;;;5.00;;
72319;SDS011;60269;52.502;16.732;2022-08-05T07:53:38;9.48;;;4.45;;
72319;SDS011;60269;52.502;16.732;2022-08-05T07:57:37;9.90;;;4.93;;
72319;SDS011;60269;52.502;16.732;2022-08-05T08:01:32;9.77;;;5.03;;
72319;SDS011;60269;52.502;16.732;2022-08-05T08:05:41;11.03;;;4.50;;
72319;SDS011;60269;52.502;16.732;2022-08-05T08:09:20;11.77;;;5.03;;
72319;SDS011;60269;52.502;16.732;2022-08-05T08:13:20;13.95;;;4.68;;
72319;SDS011;60269;52.502;16.732;2022-08-05T08:17:32;10.32;;;4.25;;
72319;SDS011;60269;52.502;16.732;2022-08-05T08:21:20;10.17;;;5.13;;
72319;SDS011;60269;52.502;16.732;2022-08-05T08:25:18;11.20;;;5.03;;
72319;SDS011;60269;52.502;16.732;2022-08-05T08:29:37;8.30;;;4.97;;
72319;SDS011;60269;52.502;16.732;2022-08-05T08:33:36;11.55;;;4.75;;
72319;SDS011;60269;52.502;16.732;2022-08-05T08:37:27;11.07;;;4.88;;
72319;SDS011;60269;52.502;16.732;2022-08-05T08:41:08;14.63;;;5.47;;
72319;SDS011;60269;52.502;16.732;2022-08-05T08:45:02;10.98;;;5.28;;
72319;SDS011;60269;52.502;16.732;2022-08-05T08:48:54;10.20;;;5.05;;
72319;SDS011;60269;52.502;16.732;2022-08-05T08:53:09;9.13;;;4.63;;
72319;SDS011;60269;52.502;16.732;2022-08-05T08:56:49;14.60;;;5.27;;
72319;SDS011;60269;52.502;16.732;2022-08-05T09:00:54;7.22;;;4.40;;
72319;SDS011;60269;52.502;16.732;2022-08-05T09:04:53;12.15;;;5.65;;
72319;SDS011;60269;52.502;16.732;2022-08-05T09:08:59;7.43;;;5.17;;
72319;SDS011;60269;52.502;16.732;2022-08-05T09:12:39;9.97;;;4.47;;
72319;SDS011;60269;52.502;16.732;2022-08-05T09:16:39;9.40;;;4.78;;
72319;SDS011;60269;52.502;16.732;2022-08-05T09:20:38;10.95;;;5.15;;
72319;SDS011;60269;52.502;16.732;2022-08-05T09:24:39;8.50;;;4.67;;
72319;SDS011;60269;52.502;16.732;2022-08-05T09:28:20;10.33;;;4.20;;
72319;SDS011;60269;52.502;16.732;2022-08-05T09:32:20;9.27;;;5.47;;
72319;SDS011;60269;52.502;16.732;2022-08-05T09:40:36;9.87;;;5.03;;
72319;SDS011;60269;52.502;16.732;2022-08-05T09:44:41;12.40;;;4.70;;
72319;SDS011;60269;52.502;16.732;2022-08-05T09:48:23;9.50;;;5.15;;
72319;SDS011;60269;52.502;16.732;2022-08-05T09:52:26;7.95;;;4.60;;
72319;SDS011;60269;52.502;16.732;2022-08-05T10:00:35;10.43;;;4.95;;
72319;SDS011;60269;52.502;16.732;2022-08-05T10:04:14;8.50;;;5.25;;
72319;SDS011;60269;52.502;16.732;2022-08-05T10:08:23;9.77;;;4.83;;
72319;SDS011;60269;52.502;16.732;2022-08-05T10:12:25;9.53;;;4.27;;
72319;SDS011;60269;52.502;16.732;2022-08-05T10:16:06;8.95;;;4.60;;
72319;SDS011;60269;52.502;16.732;2022-08-05T10:20:37;9.77;;;4.35;;
72319;SDS011;60269;52.502;16.732;2022-08-05T10:24:27;8.83;;;4.57;;
72319;SDS011;60269;52.502;16.732;2022-08-05T10:28:16;8.00;;;4.00;;
72319;SDS011;60269;52.502;16.732;2022-08-05T10:32:07;10.82;;;4.63;;
72319;SDS011;60269;52.502;16.732;2022-08-05T10:36:25;9.20;;;4.75;;
72319;SDS011;60269;52.502;16.732;2022-08-05T10:40:04;6.97;;;4.30;;
72319;SDS011;60269;52.502;16.732;2022-08-05T10:44:12;9.05;;;4.97;;
72319;SDS011;60269;52.502;16.732;2022-08-05T10:47:55;8.88;;;3.80;;
72319;SDS011;60269;52.502;16.732;2022-08-05T10:52:19;7.10;;;4.33;;
72319;SDS011;60269;52.502;16.732;2022-08-05T10:56:51;6.63;;;4.20;;
72319;SDS011;60269;52.502;16.732;2022-08-05T11:00:33;10.27;;;5.00;;
72319;SDS011;60269;52.502;16.732;2022-08-05T11:04:46;11.13;;;4.93;;
72319;SDS011;60269;52.502;16.732;2022-08-05T11:08:26;12.87;;;4.40;;
72319;SDS011;60269;52.502;16.732;2022-08-05T11:16:25;12.20;;;4.72;;
72319;SDS011;60269;52.502;16.732;2022-08-05T11:20:42;11.25;;;5.65;;
72319;SDS011;60269;52.502;16.732;2022-08-05T11:24:23;8.93;;;4.83;;
72319;SDS011;60269;52.502;16.732;2022-08-05T11:32:23;12.00;;;4.53;;
72319;SDS011;60269;52.502;16.732;2022-08-05T11:36:39;6.13;;;4.40;;
72319;SDS011;60269;52.502;16.732;2022-08-05T11:40:55;7.30;;;5.13;;
72319;SDS011;60269;52.502;16.732;2022-08-05T11:45:07;7.55;;;4.80;;
72319;SDS011;60269;52.502;16.732;2022-08-05T11:49:13;9.20;;;4.05;;
72319;SDS011;60269;52.502;16.732;2022-08-05T11:53:10;8.97;;;4.87;;
72319;SDS011;60269;52.502;16.732;2022-08-05T11:56:54;7.47;;;4.03;;
72319;SDS011;60269;52.502;16.732;2022-08-05T12:01:08;9.50;;;4.65;;
72319;SDS011;60269;52.502;16.732;2022-08-05T12:04:56;7.75;;;4.50;;
72319;SDS011;60269;52.502;16.732;2022-08-05T12:08:57;7.73;;;4.77;;
72319;SDS011;60269;52.502;16.732;2022-08-05T12:12:43;6.07;;;4.05;;
72319;SDS011;60269;52.502;16.732;2022-08-05T12:16:44;6.55;;;4.50;;
72319;SDS011;60269;52.502;16.732;2022-08-05T12:20:28;7.10;;;3.90;;
72319;SDS011;60269;52.502;16.732;2022-08-05T12:24:28;7.38;;;4.05;;
72319;SDS011;60269;52.502;16.732;2022-08-05T12:28:08;7.93;;;5.55;;
72319;SDS011;60269;52.502;16.732;2022-08-05T12:32:14;7.10;;;4.55;;
72319;SDS011;60269;52.502;16.732;2022-08-05T12:35:54;9.60;;;4.90;;
72319;SDS011;60269;52.502;16.732;2022-08-05T12:39:47;10.75;;;4.45;;
72319;SDS011;60269;52.502;16.732;2022-08-05T12:43:47;9.57;;;4.30;;
72319;SDS011;60269;52.502;16.732;2022-08-05T12:47:34;6.97;;;3.77;;
72319;SDS011;60269;52.502;16.732;2022-08-05T12:51:46;6.57;;;3.80;;
72319;SDS011;60269;52.502;16.732;2022-08-05T12:55:55;8.02;;;3.85;;
72319;SDS011;60269;52.502;16.732;2022-08-05T12:59:46;17.13;;;5.93;;
72319;SDS011;60269;52.502;16.732;2022-08-05T13:04:01;7.07;;;4.00;;
72319;SDS011;60269;52.502;16.732;2022-08-05T13:07:45;9.30;;;4.03;;
72319;SDS011;60269;52.502;16.732;2022-08-05T13:11:44;5.82;;;3.80;;
72319;SDS011;60269;52.502;16.732;2022-08-05T13:15:48;7.83;;;4.67;;
72319;SDS011;60269;52.502;16.732;2022-08-05T13:19:28;10.13;;;4.57;;
72319;SDS011;60269;52.502;16.732;2022-08-05T13:23:36;6.20;;;4.00;;
72319;SDS011;60269;52.502;16.732;2022-08-05T13:27:32;6.28;;;4.60;;
72319;SDS011;60269;52.502;16.732;2022-08-05T13:31:33;6.67;;;5.13;;
72319;SDS011;60269;52.502;16.732;2022-08-05T13:35:32;10.95;;;5.32;;
72319;SDS011;60269;52.502;16.732;2022-08-05T13:39:35;7.72;;;4.40;;
72319;SDS011;60269;52.502;16.732;2022-08-05T13:43:34;7.17;;;4.23;;
72319;SDS011;60269;52.502;16.732;2022-08-05T13:47:38;6.20;;;5.38;;
72319;SDS011;60269;52.502;16.732;2022-08-05T13:51:37;9.32;;;5.03;;
72319;SDS011;60269;52.502;16.732;2022-08-05T13:55:30;8.70;;;5.93;;
72319;SDS011;60269;52.502;16.732;2022-08-05T13:59:20;6.65;;;5.00;;
72319;SDS011;60269;52.502;16.732;2022-08-05T14:03:14;10.75;;;5.65;;
72319;SDS011;60269;52.502;16.732;2022-08-05T14:06:53;7.50;;;5.32;;
72319;SDS011;60269;52.502;16.732;2022-08-05T14:11:09;6.97;;;5.43;;
72319;SDS011;60269;52.502;16.732;2022-08-05T14:14:59;7.28;;;4.82;;
72319;SDS011;60269;52.502;16.732;2022-08-05T14:18:57;8.10;;;4.00;;
72319;SDS011;60269;52.502;16.732;2022-08-05T14:22:49;7.63;;;4.03;;
72319;SDS011;60269;52.502;16.732;2022-08-05T14:26:28;15.55;;;4.28;;
72319;SDS011;60269;52.502;16.732;2022-08-05T14:30:39;7.88;;;4.85;;
72319;SDS011;60269;52.502;16.732;2022-08-05T14:34:30;8.65;;;4.47;;
72319;SDS011;60269;52.502;16.732;2022-08-05T14:38:22;8.17;;;3.73;;
72319;SDS011;60269;52.502;16.732;2022-08-05T14:42:12;7.68;;;4.07;;
72319;SDS011;60269;52.502;16.732;2022-08-05T14:46:04;7.47;;;4.18;;
72319;SDS011;60269;52.502;16.732;2022-08-05T14:49:44;8.03;;;3.83;;
72319;SDS011;60269;52.502;16.732;2022-08-05T14:53:46;13.43;;;3.37;;
72319;SDS011;60269;52.502;16.732;2022-08-05T14:57:47;8.30;;;4.03;;
72319;SDS011;60269;52.502;16.732;2022-08-05T15:01:49;10.32;;;3.17;;
72319;SDS011;60269;52.502;16.732;2022-08-05T15:05:35;9.83;;;4.60;;
72319;SDS011;60269;52.502;16.732;2022-08-05T15:09:40;9.57;;;4.40;;
72319;SDS011;60269;52.502;16.732;2022-08-05T15:13:31;11.95;;;4.43;;
72319;SDS011;60269;52.502;16.732;2022-08-05T15:17:27;8.18;;;4.07;;
72319;SDS011;60269;52.502;16.732;2022-08-05T15:21:28;10.13;;;5.25;;
72319;SDS011;60269;52.502;16.732;2022-08-05T15:25:16;11.40;;;4.73;;
72319;SDS011;60269;52.502;16.732;2022-08-05T15:29:21;8.98;;;4.47;;
72319;SDS011;60269;52.502;16.732;2022-08-05T15:33:19;8.30;;;4.28;;
72319;SDS011;60269;52.502;16.732;2022-08-05T15:37:24;24.13;;;7.57;;
72319;SDS011;60269;52.502;16.732;2022-08-05T15:41:29;21.63;;;6.10;;
72319;SDS011;60269;52.502;16.732;2022-08-05T15:45:34;17.98;;;6.85;;
72319;SDS011;60269;52.502;16.732;2022-08-05T15:49:38;10.05;;;5.60;;
72319;SDS011;60269;52.502;16.732;2022-08-05T15:53:34;13.63;;;6.80;;
72319;SDS011;60269;52.502;16.732;2022-08-05T15:57:21;13.13;;;6.43;;
72319;SDS011;60269;52.502;16.732;2022-08-05T16:01:13;15.37;;;6.50;;
72319;SDS011;60269;52.502;16.732;2022-08-05T16:05:06;11.13;;;6.50;;
72319;SDS011;60269;52.502;16.732;2022-08-05T16:08:52;15.43;;;7.05;;
72319;SDS011;60269;52.502;16.732;2022-08-05T16:12:37;20.75;;;6.85;;
72319;SDS011;60269;52.502;16.732;2022-08-05T16:16:36;29.70;;;6.80;;
72319;SDS011;60269;52.502;16.732;2022-08-05T16:20:16;12.03;;;5.43;;
72319;SDS011;60269;52.502;16.732;2022-08-05T16:24:08;10.13;;;5.43;;
72319;SDS011;60269;52.502;16.732;2022-08-05T16:28:06;12.00;;;4.93;;
72319;SDS011;60269;52.502;16.732;2022-08-05T16:32:08;11.20;;;4.00;;
72319;SDS011;60269;52.502;16.732;2022-08-05T16:36:13;9.63;;;3.77;;
72319;SDS011;60269;52.502;16.732;2022-08-05T16:39:57;14.37;;;4.20;;
72319;SDS011;60269;52.502;16.732;2022-08-05T16:44:11;12.43;;;3.70;;
72319;SDS011;60269;52.502;16.732;2022-08-05T16:47:57;10.10;;;3.25;;
72319;SDS011;60269;52.502;16.732;2022-08-05T16:51:49;7.80;;;3.05;;
72319;SDS011;60269;52.502;16.732;2022-08-05T16:55:27;6.70;;;3.40;;
72319;SDS011;60269;52.502;16.732;2022-08-05T16:59:31;9.60;;;2.93;;
72319;SDS011;60269;52.502;16.732;2022-08-05T17:03:29;6.60;;;2.65;;
72319;SDS011;60269;52.502;16.732;2022-08-05T17:07:22;9.40;;;2.67;;
72319;SDS011;60269;52.502;16.732;2022-08-05T17:11:21;10.55;;;3.65;;
72319;SDS011;60269;52.502;16.732;2022-08-05T17:15:23;7.40;;;3.43;;
72319;SDS011;60269;52.502;16.732;2022-08-05T17:19:28;9.37;;;3.30;;
72319;SDS011;60269;52.502;16.732;2022-08-05T17:23:13;7.90;;;4.03;;
72319;SDS011;60269;52.502;16.732;2022-08-05T17:27:18;8.77;;;3.65;;
72319;SDS011;60269;52.502;16.732;2022-08-05T17:31:11;11.10;;;3.42;;
72319;SDS011;60269;52.502;16.732;2022-08-05T17:35:16;7.63;;;3.40;;
72319;SDS011;60269;52.502;16.732;2022-08-05T17:39:29;6.50;;;3.50;;
72319;SDS011;60269;52.502;16.732;2022-08-05T17:43:11;11.50;;;4.13;;
72319;SDS011;60269;52.502;16.732;2022-08-05T17:47:23;12.13;;;4.38;;
72319;SDS011;60269;52.502;16.732;2022-08-05T17:51:10;8.52;;;4.00;;
72319;SDS011;60269;52.502;16.732;2022-08-05T17:55:03;11.90;;;4.20;;
72319;SDS011;60269;52.502;16.732;2022-08-05T17:58:46;9.77;;;4.53;;
72319;SDS011;60269;52.502;16.732;2022-08-05T18:02:39;8.13;;;4.00;;
72319;SDS011;60269;52.502;16.732;2022-08-05T18:06:24;8.13;;;4.13;;
72319;SDS011;60269;52.502;16.732;2022-08-05T18:10:16;9.60;;;4.00;;
72319;SDS011;60269;52.502;16.732;2022-08-05T18:13:59;10.03;;;4.20;;
72319;SDS011;60269;52.502;16.732;2022-08-05T18:17:57;9.33;;;5.17;;
72319;SDS011;60269;52.502;16.732;2022-08-05T18:21:48;10.25;;;4.82;;
72319;SDS011;60269;52.502;16.732;2022-08-05T18:25:47;12.73;;;4.25;;
72319;SDS011;60269;52.502;16.732;2022-08-05T18:29:36;8.20;;;4.57;;
72319;SDS011;60269;52.502;16.732;2022-08-05T18:33:38;10.87;;;4.77;;
72319;SDS011;60269;52.502;16.732;2022-08-05T18:37:40;8.63;;;4.10;;
72319;SDS011;60269;52.502;16.732;2022-08-05T18:41:18;8.13;;;3.55;;
72319;SDS011;60269;52.502;16.732;2022-08-05T18:45:37;11.45;;;3.67;;
72319;SDS011;60269;52.502;16.732;2022-08-05T18:49:16;10.90;;;4.10;;
72319;SDS011;60269;52.502;16.732;2022-08-05T18:53:41;11.70;;;3.97;;
72319;SDS011;60269;52.502;16.732;2022-08-05T18:57:20;6.70;;;3.30;;
72319;SDS011;60269;52.502;16.732;2022-08-05T19:01:37;8.57;;;4.07;;
72319;SDS011;60269;52.502;16.732;2022-08-05T19:05:41;9.82;;;3.75;;
72319;SDS011;60269;52.502;16.732;2022-08-05T19:09:39;9.90;;;4.60;;
72319;SDS011;60269;52.502;16.732;2022-08-05T19:13:39;8.23;;;4.13;;
72319;SDS011;60269;52.502;16.732;2022-08-05T19:17:55;8.93;;;4.43;;
72319;SDS011;60269;52.502;16.732;2022-08-05T19:21:58;10.48;;;4.03;;
72319;SDS011;60269;52.502;16.732;2022-08-05T19:25:43;9.20;;;4.00;;
72319;SDS011;60269;52.502;16.732;2022-08-05T19:29:40;14.75;;;4.38;;
72319;SDS011;60269;52.502;16.732;2022-08-05T19:33:33;11.07;;;3.93;;
72319;SDS011;60269;52.502;16.732;2022-08-05T19:37:33;8.70;;;4.07;;
72319;SDS011;60269;52.502;16.732;2022-08-05T19:41:45;9.68;;;4.40;;
72319;SDS011;60269;52.502;16.732;2022-08-05T19:45:45;11.38;;;4.28;;
72319;SDS011;60269;52.502;16.732;2022-08-05T19:49:38;9.00;;;4.63;;
72319;SDS011;60269;52.502;16.732;2022-08-05T19:53:17;9.70;;;5.87;;
72319;SDS011;60269;52.502;16.732;2022-08-05T19:57:29;10.47;;;6.00;;
72319;SDS011;60269;52.502;16.732;2022-08-05T20:01:35;21.38;;;11.43;;
72319;SDS011;60269;52.502;16.732;2022-08-05T20:05:27;12.57;;;7.10;;
72319;SDS011;60269;52.502;16.732;2022-08-05T20:09:27;13.20;;;7.22;;
72319;SDS011;60269;52.502;16.732;2022-08-05T20:13:25;12.70;;;6.93;;
72319;SDS011;60269;52.502;16.732;2022-08-05T20:17:37;14.20;;;7.30;;
72319;SDS011;60269;52.502;16.732;2022-08-05T20:21:27;21.40;;;9.82;;
72319;SDS011;60269;52.502;16.732;2022-08-05T20:25:21;14.18;;;8.00;;
72319;SDS011;60269;52.502;16.732;2022-08-05T20:29:00;15.85;;;7.45;;
72319;SDS011;60269;52.502;16.732;2022-08-05T20:33:11;12.97;;;7.67;;
72319;SDS011;60269;52.502;16.732;2022-08-05T20:36:51;14.17;;;7.77;;
72319;SDS011;60269;52.502;16.732;2022-08-05T20:40:45;14.38;;;7.32;;
72319;SDS011;60269;52.502;16.732;2022-08-05T20:44:27;13.38;;;6.82;;
72319;SDS011;60269;52.502;16.732;2022-08-05T20:48:27;11.25;;;6.55;;
72319;SDS011;60269;52.502;16.732;2022-08-05T20:52:07;11.73;;;6.37;;
72319;SDS011;60269;52.502;16.732;2022-08-05T20:56:06;11.73;;;6.90;;
72319;SDS011;60269;52.502;16.732;2022-08-05T20:59:58;10.73;;;6.53;;
72319;SDS011;60269;52.502;16.732;2022-08-05T21:04:17;13.05;;;6.90;;
72319;SDS011;60269;52.502;16.732;2022-08-05T21:08:16;13.50;;;7.13;;
72319;SDS011;60269;52.502;16.732;2022-08-05T21:11:54;13.10;;;7.47;;
72319;SDS011;60269;52.502;16.732;2022-08-05T21:15:57;11.80;;;6.70;;
72319;SDS011;60269;52.502;16.732;2022-08-05T21:19:36;11.38;;;6.35;;
72319;SDS011;60269;52.502;16.732;2022-08-05T21:23:34;12.65;;;6.63;;
72319;SDS011;60269;52.502;16.732;2022-08-05T21:27:20;12.75;;;6.97;;
72319;SDS011;60269;52.502;16.732;2022-08-05T21:31:23;11.27;;;7.23;;
72319;SDS011;60269;52.502;16.732;2022-08-05T21:35:39;11.80;;;6.63;;
72319;SDS011;60269;52.502;16.732;2022-08-05T21:39:29;11.65;;;6.70;;
72319;SDS011;60269;52.502;16.732;2022-08-05T21:43:24;11.82;;;5.55;;
72319;SDS011;60269;52.502;16.732;2022-08-05T21:47:12;9.27;;;5.32;;
72319;SDS011;60269;52.502;16.732;2022-08-05T21:51:31;11.47;;;5.57;;
72319;SDS011;60269;52.502;16.732;2022-08-05T21:55:29;9.97;;;5.13;;
72319;SDS011;60269;52.502;16.732;2022-08-05T21:59:49;10.73;;;5.70;;
72319;SDS011;60269;52.502;16.732;2022-08-05T22:03:37;9.88;;;5.22;;
72319;SDS011;60269;52.502;16.732;2022-08-05T22:07:37;13.13;;;5.00;;
72319;SDS011;60269;52.502;16.732;2022-08-05T22:11:45;7.67;;;4.47;;
72319;SDS011;60269;52.502;16.732;2022-08-05T22:15:25;8.43;;;5.07;;
72319;SDS011;60269;52.502;16.732;2022-08-05T22:19:44;10.55;;;5.28;;
72319;SDS011;60269;52.502;16.732;2022-08-05T22:24:00;9.50;;;4.70;;
72319;SDS011;60269;52.502;16.732;2022-08-05T22:28:23;10.25;;;5.30;;
72319;SDS011;60269;52.502;16.732;2022-08-05T22:32:15;9.70;;;5.07;;
72319;SDS011;60269;52.502;16.732;2022-08-05T22:36:01;8.63;;;5.20;;
72319;SDS011;60269;52.502;16.732;2022-08-05T22:39:53;8.75;;;5.03;;
72319;SDS011;60269;52.502;16.732;2022-08-05T22:43:38;10.95;;;5.70;;
72319;SDS011;60269;52.502;16.732;2022-08-05T22:47:29;9.65;;;5.32;;
72319;SDS011;60269;52.502;16.732;2022-08-05T22:51:26;10.37;;;5.73;;
72319;SDS011;60269;52.502;16.732;2022-08-05T22:55:38;9.27;;;5.67;;
72319;SDS011;60269;52.502;16.732;2022-08-05T22:59:36;11.38;;;5.63;;
72319;SDS011;60269;52.502;16.732;2022-08-05T23:03:31;10.80;;;5.22;;
72319;SDS011;60269;52.502;16.732;2022-08-05T23:07:35;10.35;;;5.20;;
72319;SDS011;60269;52.502;16.732;2022-08-05T23:11:27;10.70;;;5.60;;
72319;SDS011;60269;52.502;16.732;2022-08-05T23:15:07;10.30;;;5.43;;
72319;SDS011;60269;52.502;16.732;2022-08-05T23:19:06;10.18;;;5.68;;
72319;SDS011;60269;52.502;16.732;2022-08-05T23:23:03;11.85;;;5.43;;
72319;SDS011;60269;52.502;16.732;2022-08-05T23:26:59;10.68;;;5.65;;
72319;SDS011;60269;52.502;16.732;2022-08-05T23:30:45;10.00;;;5.20;;
72319;SDS011;60269;52.502;16.732;2022-08-05T23:34:54;8.83;;;4.20;;